Time;durP1;ratioP1;P1;durP2;ratioP2;P2;SDS_P1;SDS_P2;PMS_P1;PMS_P2;Temp;Humidity;BMP_temperature;BMP_pressure;BME280_temperature;BME280_humidity;BME280_pressure;Samples;Min_cycle;Max_cycle;Signal;HPM_P1;HPM_P2
2023/03/05 00:00:44;;;;;;;13.40;7.75;;;;;;;3.88;66.09;97703.47;10460653;28;20037;-79
2023/03/05 00:06:05;;;;;;;15.90;8.02;;;;;;;3.91;65.74;97693.34;10501809;28;20489;-79
2023/03/05 00:11:28;;;;;;;11.70;7.80;;;;;;;3.94;66.36;97692.97;10516892;28;20044;-79
2023/03/05 00:16:50;;;;;;;13.30;7.55;;;;;;;3.90;65.86;97686.34;10500780;28;20437;-79
2023/03/05 00:22:10;;;;;;;14.40;8.00;;;;;;;3.88;65.61;97677.88;10500795;28;20044;-80
2023/03/05 00:27:31;;;;;;;13.10;7.15;;;;;;;3.88;66.48;97673.09;10500920;28;20393;-79
2023/03/05 00:32:52;;;;;;;12.85;6.63;;;;;;;3.84;66.73;97675.47;10500219;28;20582;-79
2023/03/05 00:38:13;;;;;;;12.70;7.28;;;;;;;3.81;67.23;97665.53;10499855;28;20044;-79
2023/03/05 00:43:35;;;;;;;13.35;6.65;;;;;;;3.84;67.00;97663.69;10486971;28;20077;-80
2023/03/05 00:48:59;;;;;;;13.55;7.55;;;;;;;3.80;67.60;97655.03;10506654;28;20113;-79
2023/03/05 00:54:20;;;;;;;13.10;6.90;;;;;;;3.79;66.99;97648.06;10513051;28;20040;-79
2023/03/05 00:59:41;;;;;;;13.55;7.18;;;;;;;3.76;67.07;97641.59;10499386;28;20397;-79
2023/03/05 01:05:03;;;;;;;13.57;7.30;;;;;;;3.74;67.45;97644.91;10513179;28;20063;-78
2023/03/05 01:10:28;;;;;;;14.98;6.63;;;;;;;3.73;67.36;97640.66;10512790;28;20093;-79
2023/03/05 01:15:49;;;;;;;12.40;5.68;;;;;;;3.72;67.51;97633.69;10485414;28;20044;-79
2023/03/05 01:21:10;;;;;;;11.35;5.15;;;;;;;3.69;67.34;97632.03;10512388;28;20089;-79
2023/03/05 01:26:32;;;;;;;10.32;4.40;;;;;;;3.64;67.61;97616.38;10497874;28;20040;-79
2023/03/05 01:31:52;;;;;;;8.93;4.32;;;;;;;3.60;67.57;97616.00;10483787;28;20481;-79
2023/03/05 01:37:13;;;;;;;8.18;4.32;;;;;;;3.55;68.18;97607.91;10497649;28;20040;-79
2023/03/05 01:42:34;;;;;;;9.55;4.07;;;;;;;3.56;67.86;97603.84;10497425;28;20488;-79
2023/03/05 01:47:55;;;;;;;9.93;4.47;;;;;;;3.51;67.77;97591.72;10497349;28;20044;-79
2023/03/05 01:53:16;;;;;;;10.68;6.07;;;;;;;3.50;68.71;97593.00;10511123;28;20051;-79
2023/03/05 01:58:38;;;;;;;9.55;5.78;;;;;;;3.53;68.00;97589.13;10483347;28;20036;-79
2023/03/05 02:03:59;;;;;;;10.10;5.90;;;;;;;3.58;67.64;97587.50;10522698;28;20526;-79
2023/03/05 02:09:22;;;;;;;8.75;5.13;;;;;;;3.54;67.68;97585.09;10483002;28;20043;-79
2023/03/05 02:14:44;;;;;;;10.45;5.07;;;;;;;3.58;67.30;97584.72;10496984;28;20077;-79
2023/03/05 02:20:08;;;;;;;7.72;4.32;;;;;;;3.57;67.04;97583.22;10496494;28;20405;-79
2023/03/05 02:25:30;;;;;;;;;;;;;;;3.56;66.46;97581.75;10511185;28;20081;-79
2023/03/05 02:30:51;;;;;;;5.60;3.20;;;;;;;3.54;66.54;97576.81;10510531;28;19927;-79
2023/03/05 02:36:12;;;;;;;5.65;3.10;;;;;;;3.53;66.20;97572.56;10496444;28;20109;-79
2023/03/05 02:41:33;;;;;;;5.20;2.65;;;;;;;3.50;66.06;97562.66;10504195;28;20087;-78
2023/03/05 02:46:53;;;;;;;7.07;2.67;;;;;;;3.45;66.46;97569.06;10504046;28;20382;-79
2023/03/05 02:52:14;;;;;;;5.57;3.67;;;;;;;3.41;66.84;97560.44;10486462;28;20046;-80
2023/03/05 02:57:36;;;;;;;9.15;2.55;;;;;;;3.42;67.03;97564.66;10473720;28;20389;-79
2023/03/05 03:02:56;;;;;;;5.78;2.70;;;;;;;3.39;66.97;97551.97;10500823;28;20067;-79
2023/03/05 03:08:17;;;;;;;4.65;2.75;;;;;;;3.41;66.84;97555.66;10472974;28;20040;-78
2023/03/05 03:13:40;;;;;;;6.95;3.10;;;;;;;3.39;67.06;97551.97;10507617;28;20044;-79
2023/03/05 03:19:01;;;;;;;4.13;2.35;;;;;;;3.39;66.93;97549.22;10489264;28;20465;-79
2023/03/05 03:24:22;;;;;;;4.50;2.70;;;;;;;3.42;66.42;97545.34;10517117;28;20047;-79
2023/03/05 03:29:42;;;;;;;4.00;2.17;;;;;;;3.39;66.68;97530.63;10502595;28;20073;-79
2023/03/05 03:35:03;;;;;;;8.60;3.38;;;;;;;3.40;66.37;97528.59;10502877;28;20040;-79
2023/03/05 03:40:25;;;;;;;6.03;2.25;;;;;;;3.36;66.08;97534.47;10488353;28;20040;-79
2023/03/05 03:45:45;;;;;;;5.82;1.90;;;;;;;3.38;65.65;97534.69;10502585;28;20085;-79
2023/03/05 03:51:06;;;;;;;6.13;2.33;;;;;;;3.35;66.13;97530.25;10515306;28;20503;-79
2023/03/05 03:56:27;;;;;;;7.32;2.50;;;;;;;3.39;65.34;97518.84;10501662;28;20397;-79
2023/03/05 04:01:48;;;;;;;5.18;2.90;;;;;;;3.41;65.82;97527.31;10502130;28;20424;-79
2023/03/05 04:07:10;;;;;;;8.02;4.00;;;;;;;3.38;65.99;97525.66;10501627;28;20051;-80
2023/03/05 04:12:31;;;;;;;5.65;3.38;;;;;;;3.38;65.84;97528.44;10499234;28;20044;-79
2023/03/05 04:17:52;;;;;;;5.70;3.45;;;;;;;3.43;65.90;97521.97;10513188;28;20047;-79
2023/03/05 04:23:12;;;;;;;6.60;3.55;;;;;;;3.44;66.02;97523.44;10500265;28;20032;-78
2023/03/05 04:28:33;;;;;;;6.40;2.92;;;;;;;3.37;65.97;97526.94;10486628;28;20044;-79
2023/03/05 04:33:54;;;;;;;5.60;2.58;;;;;;;3.34;65.81;97514.97;10500750;28;20074;-79
2023/03/05 04:39:16;;;;;;;5.97;2.08;;;;;;;3.26;66.41;97522.50;10502145;28;20040;-79
2023/03/05 04:44:37;;;;;;;5.60;2.20;;;;;;;3.23;66.56;97522.88;10501421;28;20040;-79
2023/03/05 04:49:58;;;;;;;4.20;2.40;;;;;;;3.20;66.49;97513.69;10499550;28;20097;-79
2023/03/05 04:55:19;;;;;;;6.07;1.90;;;;;;;3.15;66.31;97518.09;10499036;28;20101;-79
2023/03/05 05:00:40;;;;;;;4.07;2.00;;;;;;;3.11;66.36;97514.25;10499453;28;20382;-79
2023/03/05 05:06:00;;;;;;;5.63;2.17;;;;;;;3.10;66.47;97521.03;10496823;28;20036;-79
2023/03/05 05:11:21;;;;;;;5.32;2.08;;;;;;;3.06;66.75;97509.63;10478462;28;20044;-79
2023/03/05 05:16:42;;;;;;;6.68;2.20;;;;;;;3.01;66.68;97516.81;10475863;28;20032;-79
2023/03/05 05:22:03;;;;;;;5.53;2.20;;;;;;;3.00;66.89;97520.84;10465356;28;20398;-79
2023/03/05 05:27:24;;;;;;;6.30;2.75;;;;;;;2.99;67.00;97521.38;10480683;28;20050;-79
2023/03/05 05:32:45;;;;;;;4.30;2.17;;;;;;;2.97;67.00;97523.94;10466830;28;20094;-79
2023/03/05 05:38:06;;;;;;;6.63;2.10;;;;;;;2.89;67.70;97526.69;10476916;28;20404;-80
2023/03/05 05:43:27;;;;;;;7.30;2.40;;;;;;;2.90;66.74;97530.22;10487515;28;20793;-79
2023/03/05 05:48:48;;;;;;;8.40;2.42;;;;;;;2.88;67.09;97531.47;10489331;28;20386;-78
2023/03/05 05:54:12;;;;;;;5.70;2.10;;;;;;;2.88;66.57;97545.25;10490234;28;20040;-79
2023/03/05 05:59:34;;;;;;;5.32;1.63;;;;;;;2.87;65.77;97535.50;10482408;28;20046;-79
2023/03/05 06:04:55;;;;;;;3.72;1.35;;;;;;;2.86;66.27;97538.81;10466778;28;20518;-80
2023/03/05 06:10:18;;;;;;;2.95;1.38;;;;;;;2.82;65.33;97530.19;10480899;28;20040;-78
2023/03/05 06:15:38;;;;;;;4.68;1.30;;;;;;;2.81;65.08;97532.19;10492116;28;20041;-78
2023/03/05 06:21:01;;;;;;;2.92;1.02;;;;;;;2.78;65.22;97529.78;10477402;28;20280;-79
2023/03/05 06:26:22;;;;;;;3.28;1.25;;;;;;;2.87;65.35;97527.25;10490479;28;20084;-79
2023/03/05 06:31:43;;;;;;;2.53;0.90;;;;;;;2.96;64.79;97534.25;10494352;28;20033;-79
2023/03/05 06:37:04;;;;;;;3.50;1.05;;;;;;;3.05;64.58;97525.44;10476428;28;20033;-79
2023/03/05 06:42:25;;;;;;;1.65;0.80;;;;;;;3.11;63.00;97533.53;10472799;28;20044;-79
2023/03/05 06:47:45;;;;;;;2.70;0.63;;;;;;;3.19;61.47;97523.25;10480531;28;20051;-79
2023/03/05 06:53:06;;;;;;;1.45;0.30;;;;;;;3.28;61.04;97519.19;10489403;28;20036;-79
2023/03/05 06:58:27;;;;;;;1.08;0.40;;;;;;;3.33;60.26;97524.56;10474675;28;20047;-79
2023/03/05 07:03:49;;;;;;;1.85;0.40;;;;;;;3.34;59.05;97531.53;10489438;28;20584;-79
2023/03/05 07:09:12;;;;;;;1.17;0.22;;;;;;;3.40;58.49;97514.81;10465222;28;20044;-79
2023/03/05 07:14:34;;;;;;;3.00;0.57;;;;;;;3.48;58.38;97520.34;10453017;28;20163;-79
2023/03/05 07:19:55;;;;;;;0.85;0.40;;;;;;;3.56;58.17;97521.03;10474465;28;20085;-79
2023/03/05 07:25:20;;;;;;;2.13;0.30;;;;;;;3.60;57.81;97524.91;10497470;28;20051;-78
2023/03/05 07:30:41;;;;;;;1.48;0.30;;;;;;;3.63;55.70;97529.31;10516554;28;20056;-78
2023/03/05 07:36:03;;;;;;;0.77;0.17;;;;;;;3.70;57.04;97525.09;10517096;28;20081;-78
2023/03/05 07:41:24;;;;;;;3.15;0.30;;;;;;;3.70;56.07;97525.84;10486816;28;20122;-78
2023/03/05 07:46:47;;;;;;;1.60;0.20;;;;;;;3.85;55.82;97518.81;10512856;28;20040;-79
2023/03/05 07:52:12;;;;;;;1.00;0.10;;;;;;;3.84;56.06;97529.13;10517378;28;20169;-76
2023/03/05 07:57:34;;;;;;;0.63;0.20;;;;;;;3.90;53.66;97526.91;10488391;28;20043;-76
2023/03/05 08:02:55;;;;;;;1.25;0.30;;;;;;;4.21;54.28;97529.59;10502977;28;20056;-76
2023/03/05 08:08:16;;;;;;;0.88;0.30;;;;;;;5.97;55.13;97534.78;10515895;28;20390;-78
2023/03/05 08:13:37;;;;;;;1.88;0.40;;;;;;;13.11;49.81;97523.88;10502245;28;20040;-78
2023/03/05 08:18:58;;;;;;;1.05;0.20;;;;;;;16.55;44.44;97517.66;10502889;28;20040;-78
2023/03/05 08:24:19;;;;;;;0.32;0.10;;;;;;;16.91;41.05;97514.91;10514801;28;20480;-78
2023/03/05 08:29:40;;;;;;;0.30;0.10;;;;;;;14.92;32.92;97502.13;10500850;28;20047;-78
2023/03/05 08:35:03;;;;;;;1.70;0.13;;;;;;;14.67;37.80;97502.34;10514544;28;20047;-78
2023/03/05 08:40:24;;;;;;;0.43;0.10;;;;;;;13.67;36.14;97486.19;10511889;28;20397;-78
2023/03/05 08:45:46;;;;;;;0.28;0.00;;;;;;;11.97;35.70;97481.88;10486529;28;20040;-78
2023/03/05 08:51:09;;;;;;;0.28;0.10;;;;;;;10.59;35.09;97491.00;10500345;28;20044;-77
2023/03/05 08:56:30;;;;;;;1.70;0.10;;;;;;;10.56;36.78;97481.06;10482740;28;20486;-77
2023/03/05 09:01:51;;;;;;;1.13;0.20;;;;;;;10.69;34.31;97481.81;10499706;28;20064;-78
2023/03/05 09:07:12;;;;;;;0.77;0.25;;;;;;;14.33;33.16;97460.72;10499699;28;20047;-78
2023/03/05 09:12:32;;;;;;;1.00;0.30;;;;;;;18.03;28.79;97463.25;10499604;28;20040;-77
2023/03/05 09:17:53;;;;;;;0.93;0.40;;;;;;;16.44;26.62;97448.94;10484801;28;20047;-78
2023/03/05 09:23:15;;;;;;;1.00;0.20;;;;;;;14.19;28.34;97462.13;10512841;28;20119;-76
2023/03/05 09:28:37;;;;;;;1.45;0.25;;;;;;;14.14;28.85;97457.66;10482926;28;20051;-77
2023/03/05 09:33:58;;;;;;;0.50;0.20;;;;;;;13.76;28.27;97448.78;10487291;28;20036;-78
2023/03/05 09:39:19;;;;;;;1.02;0.20;;;;;;;13.68;28.75;97457.50;10501501;28;20052;-78
2023/03/05 09:45:12;;;;;;;0.95;0.20;;;;;;;12.78;28.87;97446.50;10488614;28;20447;-79
2023/03/05 09:50:50;;;;;;;2.30;0.82;;;;;;;13.14;29.52;97452.59;10514334;28;20416;-79
2023/03/05 09:56:15;;;;;;;0.88;0.30;;;;;;;14.69;28.51;97438.56;10488028;28;20492;-79
2023/03/05 10:01:40;;;;;;;0.47;0.20;;;;;;;17.59;26.77;97429.28;10497845;28;20068;-82
2023/03/05 10:07:09;;;;;;;2.13;0.25;;;;;;;17.15;24.88;97417.13;10498295;28;20494;-80
2023/03/05 10:12:59;;;;;;;1.58;0.28;;;;;;;15.55;25.66;97412.16;10511340;28;20036;-78
2023/03/05 10:18:51;;;;;;;0.52;0.20;;;;;;;16.27;25.91;97408.13;10524300;28;20044;-78
2023/03/05 10:24:37;;;;;;;1.13;0.30;;;;;;;15.69;25.34;97412.78;10525218;28;20055;-77
2023/03/05 10:30:12;;;;;;;1.48;0.43;;;;;;;14.76;25.93;97394.59;10499138;28;20052;-77
2023/03/05 10:35:38;;;;;;;1.70;0.40;;;;;;;12.70;27.12;97395.63;10497505;28;20047;-78
2023/03/05 10:41:36;;;;;;;0.90;0.40;;;;;;;11.57;29.85;97399.13;10535385;28;20036;-78
2023/03/05 10:46:57;;;;;;;0.70;0.30;;;;;;;10.52;29.30;97390.78;10534694;28;20044;-78
2023/03/05 10:52:39;;;;;;;2.40;0.40;;;;;;;9.63;30.15;97374.66;10504856;28;20074;-77
2023/03/05 10:58:01;;;;;;;0.73;0.30;;;;;;;9.39;31.08;97380.09;10519576;28;20043;-78
2023/03/05 11:03:22;;;;;;;1.35;0.50;;;;;;;8.57;32.33;97357.19;10510549;28;20060;-78
2023/03/05 11:08:43;;;;;;;1.27;0.40;;;;;;;8.50;32.84;97360.16;10524576;28;20051;-77
2023/03/05 11:14:04;;;;;;;2.33;0.40;;;;;;;8.38;32.56;97359.31;10522878;28;20036;-79
2023/03/05 11:19:28;;;;;;;1.55;0.30;;;;;;;7.84;33.23;97354.13;10517995;28;20604;-77
2023/03/05 11:25:03;;;;;;;0.70;0.30;;;;;;;7.51;34.36;97335.09;10516785;28;20051;-77
2023/03/05 11:30:28;;;;;;;0.70;0.30;;;;;;;7.66;34.16;97336.84;10517635;28;20044;-78
2023/03/05 11:35:50;;;;;;;1.80;0.40;;;;;;;7.94;34.04;97315.94;10518371;28;20043;-77
2023/03/05 11:41:12;;;;;;;1.13;0.50;;;;;;;7.75;34.34;97313.91;10517855;28;20068;-77
2023/03/05 11:46:37;;;;;;;1.77;0.35;;;;;;;7.63;34.62;97313.75;10517460;28;20074;-77
2023/03/05 11:52:17;;;;;;;0.47;0.17;;;;;;;7.44;34.45;97291.56;10513694;28;20040;-78
2023/03/05 11:58:00;;;;;;;0.95;0.20;;;;;;;7.21;35.28;97282.91;10492304;28;20039;-75
2023/03/05 12:03:26;;;;;;;1.92;0.20;;;;;;;7.26;35.26;97290.97;10511343;28;20052;-76
2023/03/05 12:08:52;;;;;;;2.22;0.30;;;;;;;7.31;35.64;97284.38;10495839;28;20033;-76
2023/03/05 12:14:24;;;;;;;1.08;0.25;;;;;;;7.32;35.50;97276.78;10485185;28;20033;-77
2023/03/05 12:19:52;;;;;;;0.60;0.20;;;;;;;7.25;35.73;97272.13;10492377;28;20469;-76
2023/03/05 12:25:27;;;;;;;0.75;0.20;;;;;;;7.06;36.58;97267.28;10514342;28;20041;-76
2023/03/05 12:30:48;;;;;;;;;;;;;;;6.84;36.63;97252.47;10516180;28;20398;-76
2023/03/05 12:36:33;;;;;;;0.73;0.20;;;;;;;6.87;36.94;97245.78;10543429;28;19920;-76
2023/03/05 12:41:55;;;;;;;;;;;;;;;7.14;36.96;97234.53;10513472;28;20063;-76
2023/03/05 12:47:18;;;;;;;1.85;0.30;;;;;;;7.33;36.58;97234.53;10528712;28;19924;-76
2023/03/05 12:52:39;;;;;;;1.15;0.30;;;;;;;7.25;36.83;97236.03;10486876;28;20048;-75
2023/03/05 12:58:12;;;;;;;1.92;0.20;;;;;;;7.07;37.14;97224.34;10499655;28;20101;-76
2023/03/05 13:03:35;;;;;;;0.40;0.20;;;;;;;7.23;36.90;97227.53;10486880;28;20055;-76
2023/03/05 13:08:57;;;;;;;0.33;0.20;;;;;;;7.19;37.33;97222.44;10513664;28;20071;-76
2023/03/05 13:14:42;;;;;;;1.13;0.40;;;;;;;7.10;37.13;97218.34;10492674;28;20123;-77
2023/03/05 13:20:25;;;;;;;1.13;0.40;;;;;;;6.99;37.56;97216.16;10484786;28;20444;-76
2023/03/05 13:26:08;;;;;;;2.05;0.65;;;;;;;6.95;37.56;97224.19;10504157;28;20067;-77
2023/03/05 13:31:29;;;;;;;1.75;0.30;;;;;;;7.07;37.71;97211.19;10501640;28;20478;-77
2023/03/05 13:37:00;;;;;;;1.95;0.68;;;;;;;7.08;37.36;97215.41;10467886;28;20040;-77
2023/03/05 13:42:25;;;;;;;0.93;0.30;;;;;;;7.17;37.66;97213.97;10503194;28;20040;-77
2023/03/05 13:48:17;;;;;;;0.70;0.22;;;;;;;7.03;38.22;97212.94;10481348;28;20048;-77
2023/03/05 13:53:38;;;;;;;1.30;0.20;;;;;;;6.81;38.41;97204.44;10481229;28;20047;-79
2023/03/05 13:58:59;;;;;;;0.93;0.38;;;;;;;6.82;38.44;97205.19;10466454;28;20501;-77
2023/03/05 14:04:36;;;;;;;1.65;0.40;;;;;;;6.86;38.64;97205.50;10483260;28;20048;-77
2023/03/05 14:09:58;;;;;;;2.05;0.30;;;;;;;6.79;39.35;97200.81;10477794;28;20071;-76
2023/03/05 14:16:21;;;;;;;2.67;0.40;;;;;;;6.44;39.70;97203.81;10497748;28;20394;-76
2023/03/05 14:21:45;;;;;;;1.42;0.47;;;;;;;6.49;40.01;97188.94;10383405;28;20105;-78
2023/03/05 14:27:12;;;;;;;1.73;0.50;;;;;;;6.76;39.78;97182.56;10483751;28;20393;-79
2023/03/05 14:32:34;;;;;;;1.52;0.70;;;;;;;6.90;39.60;97172.47;10485108;28;20044;-77
2023/03/05 14:37:56;;;;;;;1.85;0.47;;;;;;;6.77;39.14;97176.44;10505496;28;20048;-77
2023/03/05 14:43:17;;;;;;;1.27;0.47;;;;;;;6.67;39.69;97180.50;10519526;28;20059;-76
2023/03/05 14:48:38;;;;;;;2.28;0.40;;;;;;;6.42;39.81;97164.84;10519322;28;20058;-76
2023/03/05 14:54:00;;;;;;;1.83;0.35;;;;;;;6.28;39.99;97156.22;10519152;28;20068;-77
2023/03/05 14:59:22;;;;;;;3.20;0.50;;;;;;;6.08;40.99;97159.50;10505666;28;20036;-78
2023/03/05 15:04:45;;;;;;;1.83;0.52;;;;;;;5.91;41.53;97154.78;10518058;28;20489;-77
2023/03/05 15:10:07;;;;;;;1.70;0.40;;;;;;;5.88;41.17;97136.50;10498641;28;20036;-78
2023/03/05 15:15:28;;;;;;;2.33;0.40;;;;;;;5.81;41.90;97135.34;10500117;28;20044;-79
2023/03/05 15:20:52;;;;;;;0.93;0.43;;;;;;;5.71;41.87;97131.81;10486856;28;20051;-79
2023/03/05 15:26:13;;;;;;;1.90;0.40;;;;;;;5.59;41.58;97128.09;10462543;28;20093;-79
2023/03/05 15:31:37;;;;;;;1.23;0.50;;;;;;;5.51;41.89;97125.44;10461157;28;20036;-79
2023/03/05 15:36:59;;;;;;;2.03;0.25;;;;;;;5.51;41.96;97119.91;10475649;28;20044;-79
2023/03/05 15:42:20;;;;;;;1.80;0.50;;;;;;;5.51;42.19;97108.84;10468846;28;20036;-79
2023/03/05 15:47:40;;;;;;;3.53;0.60;;;;;;;5.41;42.63;97119.13;10459873;28;20048;-79
2023/03/05 15:53:01;;;;;;;1.25;0.50;;;;;;;5.41;43.06;97099.75;10462633;28;20044;-78
2023/03/05 15:58:22;;;;;;;1.83;0.52;;;;;;;5.39;42.43;97108.63;10463600;28;20048;-79
2023/03/05 16:03:43;;;;;;;2.63;0.43;;;;;;;5.25;43.09;97106.81;10489612;28;20064;-79
2023/03/05 16:09:05;;;;;;;2.10;0.40;;;;;;;5.14;43.03;97099.75;10473039;28;20059;-79
2023/03/05 16:14:26;;;;;;;2.15;0.63;;;;;;;5.12;43.31;97102.38;10460010;28;20040;-78
2023/03/05 16:19:49;;;;;;;1.50;0.80;;;;;;;5.07;43.48;97100.59;10473186;28;20048;-79
2023/03/05 16:25:10;;;;;;;1.90;0.63;;;;;;;5.06;43.81;97099.13;10473415;28;20037;-77
2023/03/05 16:30:31;;;;;;;3.13;1.00;;;;;;;5.02;43.99;97096.03;10459188;28;20044;-77
2023/03/05 16:36:24;;;;;;;2.00;0.50;;;;;;;4.96;44.15;97098.34;10473054;28;20430;-77
2023/03/05 16:41:45;;;;;;;1.38;0.43;;;;;;;4.91;44.47;97093.78;10472399;28;20044;-78
2023/03/05 16:47:10;;;;;;;2.60;0.63;;;;;;;4.92;44.57;97104.25;10458904;28;20063;-76
2023/03/05 16:52:31;;;;;;;0.97;0.47;;;;;;;4.83;45.19;97099.44;10472873;28;20398;-75
2023/03/05 16:57:52;;;;;;;1.40;0.60;;;;;;;4.81;44.87;97099.97;10458221;28;20317;-75
2023/03/05 17:03:13;;;;;;;1.50;0.50;;;;;;;4.76;44.88;97112.03;10457347;28;20052;-75
2023/03/05 17:08:36;;;;;;;1.42;0.60;;;;;;;4.76;44.93;97100.97;10457212;28;20052;-75
2023/03/05 17:13:57;;;;;;;2.80;0.80;;;;;;;4.78;45.42;97111.47;10458205;28;20141;-75
2023/03/05 17:19:18;;;;;;;3.05;0.70;;;;;;;4.74;45.92;97117.41;10484937;28;20041;-75
2023/03/05 17:24:41;;;;;;;3.58;1.10;;;;;;;4.70;45.88;97122.59;10456892;28;20045;-76
2023/03/05 17:30:03;;;;;;;3.15;0.90;;;;;;;4.68;46.86;97136.25;10499378;28;20051;-77
2023/03/05 17:35:24;;;;;;;2.97;1.00;;;;;;;4.68;47.21;97135.53;10472672;28;20446;-76
2023/03/05 17:40:45;;;;;;;2.60;1.00;;;;;;;4.58;50.16;97132.69;10512018;28;20450;-76
2023/03/05 17:46:06;;;;;;;2.20;1.05;;;;;;;4.44;49.48;97139.81;10497882;28;20043;-75
2023/03/05 17:51:27;;;;;;;2.30;0.80;;;;;;;4.38;48.96;97126.25;10497886;28;20048;-75
2023/03/05 17:56:48;;;;;;;2.28;1.10;;;;;;;4.31;49.82;97129.81;10496857;28;20044;-77
2023/03/05 18:02:09;;;;;;;2.92;1.00;;;;;;;4.16;50.84;97125.19;10495653;28;20059;-77
2023/03/05 18:07:29;;;;;;;2.97;1.10;;;;;;;4.06;50.76;97123.63;10475176;28;20044;-78
2023/03/05 18:12:50;;;;;;;3.00;1.13;;;;;;;3.99;51.08;97128.66;10469757;28;20041;-77
2023/03/05 18:18:11;;;;;;;2.03;0.95;;;;;;;3.95;52.02;97122.03;10455361;28;20041;-78
2023/03/05 18:23:32;;;;;;;3.97;1.50;;;;;;;3.95;52.53;97114.50;10455257;28;20044;-77
2023/03/05 18:28:52;;;;;;;4.03;1.70;;;;;;;3.87;53.33;97099.31;10455155;28;20052;-78
2023/03/05 18:34:13;;;;;;;4.70;1.98;;;;;;;3.85;52.91;97094.31;10455209;28;20078;-77
2023/03/05 18:39:34;;;;;;;5.78;2.25;;;;;;;3.84;53.60;97092.13;10454996;28;20473;-78
2023/03/05 18:44:55;;;;;;;4.72;1.98;;;;;;;3.78;53.41;97092.38;10455201;28;20036;-79
2023/03/05 18:50:17;;;;;;;5.18;1.85;;;;;;;3.79;54.20;97085.56;10454799;28;20402;-78
2023/03/05 18:55:40;;;;;;;3.60;1.70;;;;;;;3.73;53.25;97088.53;10495488;28;20033;-79
2023/03/05 19:01:03;;;;;;;4.10;2.07;;;;;;;3.78;54.01;97099.94;10520852;28;20486;-79
2023/03/05 19:06:24;;;;;;;3.25;1.50;;;;;;;3.79;54.02;97090.34;10464357;28;20044;-79
2023/03/05 19:11:46;;;;;;;4.65;1.52;;;;;;;3.74;53.71;97092.75;10454394;28;20127;-78
2023/03/05 19:17:07;;;;;;;4.30;1.60;;;;;;;3.73;54.12;97094.06;10454280;28;20048;-79
2023/03/05 19:22:28;;;;;;;6.32;2.63;;;;;;;3.74;53.95;97092.75;10486736;28;20044;-79
2023/03/05 19:27:49;;;;;;;5.47;1.70;;;;;;;3.76;54.05;97086.66;10448061;28;20044;-79
2023/03/05 19:33:10;;;;;;;6.13;2.33;;;;;;;3.76;54.12;97085.94;10475500;28;20083;-80
2023/03/05 19:38:31;;;;;;;5.32;2.40;;;;;;;3.71;54.44;97085.63;10474800;28;20086;-78
2023/03/05 19:43:52;;;;;;;6.00;2.15;;;;;;;3.66;54.55;97089.31;10474854;28;20169;-78
2023/03/05 19:49:13;;;;;;;5.47;2.10;;;;;;;3.67;54.54;97090.09;10474784;28;20045;-78
2023/03/05 19:54:34;;;;;;;6.10;2.42;;;;;;;3.56;54.80;97077.44;10487110;28;20036;-78
2023/03/05 19:59:55;;;;;;;5.20;2.15;;;;;;;3.55;55.12;97073.22;10484515;28;20048;-77
2023/03/05 20:05:16;;;;;;;4.43;1.55;;;;;;;3.52;55.39;97079.88;10475076;28;20063;-78
2023/03/05 20:10:37;;;;;;;4.43;2.00;;;;;;;3.48;55.25;97071.28;10473807;28;20044;-78
2023/03/05 20:15:58;;;;;;;5.53;1.73;;;;;;;3.42;55.56;97070.75;10473430;28;20055;-78
2023/03/05 20:21:22;;;;;;;3.83;1.40;;;;;;;3.37;55.77;97063.41;10445745;28;20040;-78
2023/03/05 20:26:43;;;;;;;3.80;1.58;;;;;;;3.35;56.02;97071.53;10459600;28;20103;-78
2023/03/05 20:32:04;;;;;;;3.90;1.83;;;;;;;3.37;56.38;97060.66;10458604;28;20502;-78
2023/03/05 20:37:34;;;;;;;4.35;1.50;;;;;;;3.38;56.19;97059.41;10472397;28;20040;-77
2023/03/05 20:42:55;;;;;;;2.53;1.13;;;;;;;3.38;56.35;97059.41;10475043;28;20051;-78
2023/03/05 20:48:16;;;;;;;4.65;1.40;;;;;;;3.38;56.32;97046.34;10472157;28;20115;-78
2023/03/05 20:53:37;;;;;;;3.42;1.52;;;;;;;3.36;56.06;97040.63;10472054;28;20061;-78
2023/03/05 20:58:59;;;;;;;2.85;1.08;;;;;;;3.36;56.61;97051.66;10447361;28;20107;-79
2023/03/05 21:04:20;;;;;;;3.63;0.90;;;;;;;3.37;56.72;97041.34;10457147;28;20490;-79
2023/03/05 21:09:41;;;;;;;3.28;1.20;;;;;;;3.36;56.50;97040.63;10457961;28;20513;-79
2023/03/05 21:15:02;;;;;;;3.58;1.25;;;;;;;3.32;56.86;97036.81;10471280;28;20040;-77
2023/03/05 21:20:28;;;;;;;4.03;0.88;;;;;;;3.23;56.83;97027.13;10446113;28;20509;-77
2023/03/05 21:25:49;;;;;;;2.00;0.90;;;;;;;3.13;57.24;97006.97;10444282;28;20078;-80
2023/03/05 21:31:14;;;;;;;4.25;1.10;;;;;;;3.06;56.98;97008.47;10467642;28;20044;-78
2023/03/05 21:36:35;;;;;;;2.60;0.80;;;;;;;3.03;57.87;97008.88;10468495;28;20050;-78
2023/03/05 21:41:56;;;;;;;2.65;1.17;;;;;;;2.95;57.43;96997.88;10469279;28;20036;-79
2023/03/05 21:47:17;;;;;;;3.15;1.20;;;;;;;2.93;57.74;96989.47;10480581;28;20040;-78
2023/03/05 21:52:38;;;;;;;3.88;1.38;;;;;;;2.81;58.82;96985.69;10475983;28;20067;-79
2023/03/05 21:58:01;;;;;;;3.53;1.42;;;;;;;2.78;58.09;96981.28;10478477;28;20066;-78
2023/03/05 22:03:31;;;;;;;3.47;1.30;;;;;;;2.69;58.53;96979.84;10483998;28;20063;-79
2023/03/05 22:08:52;;;;;;;3.20;1.23;;;;;;;2.66;58.94;96977.50;10492284;28;20040;-78
2023/03/05 22:14:13;;;;;;;2.75;0.98;;;;;;;2.67;59.64;96987.22;10481056;28;20043;-79
2023/03/05 22:19:36;;;;;;;3.73;1.23;;;;;;;2.76;59.37;96992.84;10499319;28;20494;-78
2023/03/05 22:24:58;;;;;;;3.70;1.23;;;;;;;2.79;58.87;96983.47;10475206;28;20043;-78
2023/03/05 22:30:18;;;;;;;2.88;1.15;;;;;;;2.74;59.06;96978.19;10480047;28;20051;-78
2023/03/05 22:35:40;;;;;;;4.05;1.90;;;;;;;2.59;59.71;96985.22;10479712;28;20041;-79
2023/03/05 22:41:06;;;;;;;3.90;2.03;;;;;;;2.38;60.20;96971.03;10479481;28;20039;-78
2023/03/05 22:46:27;;;;;;;3.65;1.67;;;;;;;2.29;60.32;96968.84;10463569;28;20050;-79
2023/03/05 22:51:48;;;;;;;4.10;1.50;;;;;;;2.21;60.19;96966.13;10477413;28;20131;-79
2023/03/05 22:57:09;;;;;;;5.47;2.00;;;;;;;2.13;61.77;96956.47;10477190;28;20431;-78
2023/03/05 23:02:30;;;;;;;3.22;1.73;;;;;;;2.15;61.25;96959.38;10461896;28;20497;-78
2023/03/05 23:07:51;;;;;;;4.57;1.80;;;;;;;2.12;61.13;96941.19;10462208;28;20098;-78
2023/03/05 23:13:12;;;;;;;3.47;1.70;;;;;;;2.03;61.90;96926.03;10475994;28;20040;-78
2023/03/05 23:18:33;;;;;;;3.90;1.48;;;;;;;2.04;62.12;96927.50;10475440;28;20051;-78
2023/03/05 23:23:55;;;;;;;3.10;1.52;;;;;;;2.05;62.08;96934.47;10476017;28;20048;-78
2023/03/05 23:29:16;;;;;;;3.75;1.63;;;;;;;2.11;61.81;96940.47;10475776;28;20044;-78
2023/03/05 23:34:37;;;;;;;3.95;1.65;;;;;;;2.15;61.84;96940.09;10474895;28;20437;-78
2023/03/05 23:39:58;;;;;;;6.97;2.08;;;;;;;2.19;62.32;96940.44;10474850;28;20055;-78
2023/03/05 23:45:20;;;;;;;5.43;2.30;;;;;;;2.18;62.60;96942.47;10460869;28;20379;-78
2023/03/05 23:50:42;;;;;;;6.05;2.90;;;;;;;2.11;62.55;96943.22;10475159;28;20106;-78
2023/03/05 23:56:08;;;;;;;6.68;3.20;;;;;;;2.06;62.23;96935.19;10474358;28;20045;-79
